Time;durP1;ratioP1;P1;durP2;ratioP2;P2;SDS_P1;SDS_P2;PMS_P1;PMS_P2;Temp;Humidity;BMP_temperature;BMP_pressure;BME280_temperature;BME280_humidity;BME280_pressure;Samples;Min_cycle;Max_cycle;Signal;HPM_P1;HPM_P2
2021/12/05 00:24:16;;;;;;;34.25;17.52;;;;;;;11.69;66.98;99557.72;5064903;28;20048;-54
2021/12/05 00:27:09;;;;;;;33.83;17.38;;;;;;;11.63;66.34;99556.41;5058872;28;20099;-54
2021/12/05 00:30:07;;;;;;;33.63;16.80;;;;;;;11.65;65.98;99560.38;5055272;28;20068;-54
2021/12/05 01:14:58;;;;;;;27.30;14.77;;;;;;;11.82;62.16;99532.81;5056951;28;20411;-54
2021/12/05 01:18:15;;;;;;;26.98;13.50;;;;;;;11.80;61.55;99535.09;5069380;28;20043;-54
2021/12/05 01:21:10;;;;;;;24.15;14.82;;;;;;;11.80;60.16;99529.66;5073684;28;20048;-54
2021/12/05 01:24:08;;;;;;;30.40;16.33;;;;;;;11.80;60.41;99540.53;5066145;28;20044;-54
2021/12/05 01:29:52;;;;;;;51.45;25.27;;;;;;;11.80;65.91;99540.53;5072278;28;20059;-54
2021/12/05 01:32:56;;;;;;;44.85;21.73;;;;;;;11.75;63.59;99543.53;5069557;28;20052;-54
2021/12/05 01:39:05;;;;;;;35.47;18.33;;;;;;;11.79;62.23;99533.50;5067933;28;20403;-54
2021/12/05 02:41:37;;;;;;;46.25;22.45;;;;;;;11.81;65.96;99449.53;5070571;28;20107;-54
2021/12/05 02:44:24;;;;;;;50.65;25.65;;;;;;;11.84;67.77;99448.00;5074708;28;20075;-54
2021/12/05 02:47:17;;;;;;;39.58;19.90;;;;;;;11.74;66.62;99451.28;5075279;28;20040;-54
2021/12/05 02:50:06;;;;;;;32.58;17.65;;;;;;;11.70;63.68;99442.22;5077765;28;20040;-54
2021/12/05 02:52:57;;;;;;;30.80;16.98;;;;;;;11.67;62.04;99437.47;5057578;28;20106;-54
2021/12/05 02:55:47;;;;;;;45.95;22.17;;;;;;;11.71;63.91;99428.25;5074890;28;20051;-54
2021/12/05 02:58:49;;;;;;;48.67;23.45;;;;;;;11.70;66.89;99410.31;5076574;28;20043;-54
2021/12/05 03:01:40;;;;;;;47.25;22.63;;;;;;;11.71;66.96;99395.56;5064159;28;20143;-54
2021/12/05 03:04:31;;;;;;;32.65;18.02;;;;;;;11.63;64.85;99399.25;5076428;28;20048;-54
2021/12/05 03:07:25;;;;;;;26.55;16.30;;;;;;;11.65;62.66;99398.91;5066580;28;20051;-54
2021/12/05 03:10:13;;;;;;;32.35;15.77;;;;;;;11.66;60.02;99403.22;5066600;28;20075;-54
2021/12/05 03:12:58;;;;;;;51.35;24.65;;;;;;;11.64;64.18;99427.28;5073881;28;20052;-54
2021/12/05 03:15:44;;;;;;;51.28;24.02;;;;;;;11.54;65.81;99423.16;5073959;28;20510;-54
2021/12/05 03:18:28;;;;;;;52.58;25.58;;;;;;;11.64;67.22;99422.63;5067772;28;20039;-54
2021/12/05 03:21:14;;;;;;;33.25;18.98;;;;;;;11.63;66.93;99420.28;5060718;28;20051;-54
2021/12/05 03:24:00;;;;;;;33.95;19.25;;;;;;;11.65;64.58;99412.53;5069050;28;20047;-54
2021/12/05 03:26:51;;;;;;;29.45;17.73;;;;;;;11.70;66.38;99409.53;5074792;28;20047;-54
2021/12/05 03:29:37;;;;;;;58.10;26.67;;;;;;;11.70;67.45;99406.81;5055771;28;20039;-54
2021/12/05 03:32:22;;;;;;;45.22;22.13;;;;;;;11.69;67.49;99413.41;5058595;28;20043;-54
2021/12/05 03:35:10;;;;;;;45.92;23.48;;;;;;;11.41;66.34;99421.69;5060530;28;20047;-54
2021/12/05 03:37:58;;;;;;;58.85;26.60;;;;;;;11.46;67.07;99421.44;5060024;28;20048;-54
2021/12/05 03:40:44;;;;;;;54.05;25.67;;;;;;;11.49;66.73;99415.28;5064915;28;20044;-54
2021/12/05 03:43:33;;;;;;;59.60;26.77;;;;;;;11.46;66.20;99418.72;5068047;28;20047;-54
2021/12/05 03:46:18;;;;;;;53.22;25.88;;;;;;;11.50;66.34;99416.84;5072152;28;20047;-54
2021/12/05 03:49:07;;;;;;;44.47;23.23;;;;;;;11.39;65.69;99399.47;5071728;28;20414;-54
2021/12/05 03:52:01;;;;;;;53.30;24.00;;;;;;;11.26;63.54;99406.16;5067313;28;20059;-54
2021/12/05 03:54:46;;;;;;;55.22;24.95;;;;;;;11.24;64.87;99409.22;5068794;28;20411;-54
2021/12/05 03:57:31;;;;;;;39.15;19.10;;;;;;;11.32;65.15;99421.09;5058389;28;20411;-54
2021/12/05 04:00:30;;;;;;;43.55;20.20;;;;;;;11.34;64.76;99413.34;5066560;28;20214;-54
2021/12/05 04:03:17;;;;;;;48.78;25.92;;;;;;;11.34;64.86;99413.34;5071046;28;20411;-54
2021/12/05 04:06:07;;;;;;;52.05;24.15;;;;;;;11.23;64.47;99418.53;5061865;28;20051;-54
2021/12/05 04:08:53;;;;;;;56.30;28.13;;;;;;;11.32;65.54;99412.94;5060818;28;20052;-54
2021/12/05 04:11:46;;;;;;;48.13;23.98;;;;;;;11.31;65.09;99408.63;5064432;28;20059;-54
2021/12/05 04:14:37;;;;;;;66.32;29.70;;;;;;;11.36;66.28;99408.34;5063081;28;20339;-54
2021/12/05 04:17:23;;;;;;;62.42;29.35;;;;;;;11.38;66.66;99414.22;5075178;28;20056;-54
2021/12/05 04:20:12;;;;;;;54.03;27.67;;;;;;;11.30;66.18;99413.28;5071884;28;20043;-54
2021/12/05 04:22:57;;;;;;;42.90;23.27;;;;;;;11.28;65.80;99420.97;5066968;28;20052;-54
2021/12/05 04:25:43;;;;;;;44.30;20.60;;;;;;;11.26;65.83;99422.50;5064233;28;20342;-54
2021/12/05 04:28:28;;;;;;;56.00;26.77;;;;;;;11.33;66.34;99422.66;5075714;28;20051;-54
2021/12/05 04:31:15;;;;;;;56.03;28.23;;;;;;;11.18;65.88;99424.22;5064904;28;20514;-54
2021/12/05 04:34:00;;;;;;;59.17;27.83;;;;;;;11.28;65.99;99429.16;5070069;28;20051;-54
2021/12/05 04:36:46;;;;;;;38.92;20.25;;;;;;;11.22;66.03;99437.94;5072703;28;20506;-54
2021/12/05 04:39:33;;;;;;;58.17;29.17;;;;;;;11.23;65.84;99429.41;5065157;28;20522;-54
2021/12/05 04:42:18;;;;;;;66.60;32.90;;;;;;;11.37;66.09;99418.91;5068511;28;20051;-54
2021/12/05 04:45:07;;;;;;;52.97;25.38;;;;;;;11.24;65.10;99408.44;5066869;28;20048;-54
2021/12/05 04:47:52;;;;;;;47.85;23.98;;;;;;;11.19;64.64;99417.66;5073374;28;20051;-54
2021/12/05 04:50:39;;;;;;;61.08;29.95;;;;;;;11.28;66.05;99415.53;5066197;28;20047;-54
2021/12/05 04:53:26;;;;;;;68.65;32.72;;;;;;;11.38;67.65;99425.09;5055658;28;20043;-54
2021/12/05 04:56:12;;;;;;;74.70;32.50;;;;;;;11.38;66.79;99423.19;5062205;28;20063;-54
2021/12/05 04:58:59;;;;;;;41.90;23.05;;;;;;;11.39;65.65;99426.69;5071324;28;20115;-54
2021/12/05 05:01:51;;;;;;;37.33;21.38;;;;;;;11.43;63.24;99435.72;5063818;28;20603;-54
2021/12/05 05:04:45;;;;;;;50.22;25.67;;;;;;;11.44;63.37;99440.03;5065439;28;20051;-54
2021/12/05 05:07:31;;;;;;;70.00;32.63;;;;;;;11.45;65.57;99447.06;5065798;28;20067;-54
2021/12/05 05:10:25;;;;;;;50.65;24.13;;;;;;;11.48;67.55;99452.59;5069691;28;20245;-54
2021/12/05 05:13:10;;;;;;;71.47;32.70;;;;;;;11.44;68.37;99448.19;5068904;28;20672;-54
2021/12/05 05:15:56;;;;;;;32.95;16.33;;;;;;;11.44;67.65;99449.00;5075650;28;20403;-54
2021/12/05 05:50:54;;;;;;;75.97;32.28;;;;;;;11.28;66.62;99471.91;5069964;28;20066;-55
2021/12/05 05:53:41;;;;;;;44.35;21.17;;;;;;;11.24;65.64;99471.03;5066164;28;20049;-55
2021/12/05 05:56:28;;;;;;;54.72;28.27;;;;;;;11.12;66.84;99469.94;5063789;22;20057;-78
2021/12/05 05:59:26;;;;;;;73.25;32.80;;;;;;;11.06;68.17;99465.13;5021480;28;20060;-77
2021/12/05 06:04:59;;;;;;;60.47;29.52;;;;;;;11.13;69.50;99462.59;5023741;28;20061;-79
2021/12/05 06:07:46;;;;;;;45.60;20.05;;;;;;;10.98;68.18;99455.19;5034719;28;20041;-76
2021/12/05 06:10:31;;;;;;;67.82;29.70;;;;;;;11.04;68.88;99454.59;5028250;28;20422;-76
2021/12/05 06:13:18;;;;;;;52.38;26.10;;;;;;;10.94;68.46;99459.75;5029529;28;20060;-76
2021/12/05 06:16:03;;;;;;;54.78;25.05;;;;;;;11.17;70.49;99447.16;5042535;28;20079;-77
2021/12/05 06:18:48;;;;;;;55.70;26.38;;;;;;;11.15;69.42;99439.34;5028422;28;20064;-76
2021/12/05 06:21:33;;;;;;;43.03;20.42;;;;;;;11.05;68.74;99439.84;5036665;28;20052;-76
2021/12/05 06:24:22;;;;;;;40.28;20.02;;;;;;;11.18;69.51;99434.31;5029261;28;20048;-76
2021/12/05 06:27:07;;;;;;;55.05;28.48;;;;;;;11.17;68.92;99433.56;5031830;28;20403;-78
2021/12/05 06:30:00;;;;;;;41.08;20.02;;;;;;;11.14;69.53;99421.44;5033719;28;20048;-77
2021/12/05 06:47:27;;;;;;;48.22;23.63;;;;;;;11.09;69.10;99418.19;5033320;28;20049;-76
2021/12/05 06:50:12;;;;;;;49.05;23.38;;;;;;;11.06;68.75;99416.16;5023349;28;20418;-75
2021/12/05 06:52:57;;;;;;;38.80;18.67;;;;;;;11.15;70.00;99416.78;5019737;28;20048;-77
2021/12/05 06:55:41;;;;;;;29.85;15.85;;;;;;;11.01;68.45;99422.66;5030384;28;20410;-76
2021/12/05 06:58:26;;;;;;;;;;;;;;;11.17;70.07;99413.72;5038225;28;20049;-78
2021/12/05 07:01:12;;;;;;;45.28;22.20;;;;;;;11.20;70.93;99419.25;5050093;28;19933;-77
2021/12/05 07:04:03;;;;;;;47.50;23.65;;;;;;;11.18;70.09;99415.28;5032800;28;20445;-77
2021/12/05 07:06:48;;;;;;;43.08;22.20;;;;;;;11.08;69.84;99411.94;5035751;28;20547;-77
2021/12/05 07:09:34;;;;;;;;;;;;;;;11.17;70.25;99406.34;5021940;28;20401;-78
2021/12/05 07:24:33;;;;;;;36.08;17.88;;;;;;;10.83;67.21;99421.38;5031558;28;20072;-77
2021/12/05 07:40:18;;;;;;;41.63;19.35;;;;;;;11.00;70.11;99421.06;5023308;28;20044;-76
2021/12/05 07:42:26;;;;;;;39.17;18.70;;;;;;;10.60;67.35;99406.78;5045175;28;20040;-77
2021/12/05 07:45:16;;;;;;;35.17;18.02;;;;;;;10.65;66.34;99411.97;5031053;28;20287;-75
2021/12/05 07:48:12;;;;;;;32.05;17.83;;;;;;;10.62;67.01;99404.50;5016419;28;20064;-78
2021/12/05 07:51:14;;;;;;;28.75;15.75;;;;;;;10.53;66.51;99401.16;5034491;28;20045;-77
2021/12/05 08:15:19;;;;;;;28.05;16.38;;;;;;;10.36;67.40;99404.97;5029923;28;20406;-79
2021/12/05 08:18:04;;;;;;;30.58;16.85;;;;;;;10.39;64.67;99398.03;5016940;28;20053;-76
2021/12/05 08:20:49;;;;;;;24.58;13.90;;;;;;;10.44;66.48;99403.22;5013781;28;20045;-77
2021/12/05 08:23:34;;;;;;;;;;;;;;;10.64;67.28;99415.81;5032124;28;20048;-76
2021/12/05 08:26:26;;;;;;;30.42;18.15;;;;;;;10.59;67.77;99410.63;5033121;28;19913;-78
2021/12/05 08:29:18;;;;;;;33.50;16.88;;;;;;;10.67;67.94;99405.03;5033006;28;20052;-77
2021/12/05 08:32:16;;;;;;;33.60;18.38;;;;;;;10.46;67.20;99398.25;5031326;28;20048;-77
2021/12/05 08:35:17;;;;;;;33.15;18.85;;;;;;;10.59;69.08;99395.13;5028275;28;20052;-77
2021/12/05 09:26:44;;;;;;;26.33;15.23;;;;;;;10.71;71.69;99407.88;5032722;28;20121;-78
2021/12/05 09:38:59;;;;;;;27.00;17.55;;;;;;;10.65;64.94;99387.50;5027544;28;20048;-75
2021/12/05 10:03:35;;;;;;;26.70;16.45;;;;;;;10.44;67.23;99376.06;5025315;28;20052;-76
2021/12/05 10:12:23;;;;;;;27.08;15.45;;;;;;;10.83;68.34;99341.72;5037479;28;20056;-80
2021/12/05 10:15:31;;;;;;;28.58;15.52;;;;;;;10.75;68.85;99348.94;5036956;28;20052;-79
2021/12/05 10:34:04;;;;;;;32.03;17.43;;;;;;;11.12;70.63;99344.81;5039891;28;20053;-78
2021/12/05 10:37:06;;;;;;;31.17;16.25;;;;;;;11.09;67.42;99340.06;5012991;28;20296;-80
2021/12/05 10:40:16;;;;;;;31.80;17.00;;;;;;;11.27;69.54;99332.34;5036559;28;20072;-78
2021/12/05 10:43:01;;;;;;;31.08;18.15;;;;;;;11.26;67.70;99335.41;5034028;28;20056;-78
2021/12/05 10:45:50;;;;;;;29.63;17.55;;;;;;;11.45;69.00;99340.91;5035167;28;20049;-79
2021/12/05 10:48:46;;;;;;;27.75;16.52;;;;;;;11.26;66.37;99336.22;5023706;28;20056;-79
2021/12/05 10:51:35;;;;;;;32.92;15.95;;;;;;;11.43;66.92;99340.47;5034806;28;20072;-80
2021/12/05 10:54:22;;;;;;;24.67;14.82;;;;;;;11.35;65.92;99338.72;5039213;28;20064;-79
2021/12/05 10:57:09;;;;;;;34.13;15.85;;;;;;;11.13;65.86;99326.56;5021510;28;20044;-78
2021/12/05 10:59:54;;;;;;;25.98;16.05;;;;;;;11.02;65.70;99320.84;5039478;28;20080;-79
2021/12/05 11:02:39;;;;;;;19.33;11.63;;;;;;;10.85;63.73;99320.44;5038648;28;20048;-80
2021/12/05 11:05:34;;;;;;;21.25;12.32;;;;;;;11.21;67.55;99314.72;5022551;28;20056;-78
2021/12/05 11:08:38;;;;;;;25.67;15.05;;;;;;;11.29;66.13;99312.94;5034666;28;20041;-76
2021/12/05 11:11:24;;;;;;;24.25;14.90;;;;;;;11.44;68.04;99312.91;5022346;28;20061;-79
2021/12/05 11:14:19;;;;;;;21.10;13.82;;;;;;;11.48;67.59;99315.69;5032377;28;20068;-79
2021/12/05 11:17:08;;;;;;;30.37;15.27;;;;;;;11.44;66.10;99309.38;5025024;28;20064;-77
2021/12/05 11:19:57;;;;;;;23.77;14.85;;;;;;;11.51;67.43;99312.28;5029579;28;20672;-77
2021/12/05 11:22:45;;;;;;;25.52;14.60;;;;;;;11.52;67.07;99309.22;5029317;28;20052;-76
2021/12/05 11:25:33;;;;;;;23.15;14.55;;;;;;;11.49;67.44;99300.94;5018155;28;20040;-77
2021/12/05 11:28:24;;;;;;;24.85;14.25;;;;;;;11.50;66.97;99307.97;5030181;28;20036;-77
2021/12/05 11:31:25;;;;;;;27.25;14.93;;;;;;;11.48;66.27;99311.03;5026292;28;20185;-78
2021/12/05 11:34:10;;;;;;;21.52;11.93;;;;;;;11.69;68.05;99299.81;5022365;28;20056;-76
2021/12/05 11:36:57;;;;;;;16.85;9.90;;;;;;;11.76;67.52;99310.91;5025722;28;20053;-76
2021/12/05 11:39:42;;;;;;;22.08;12.93;;;;;;;11.66;66.53;99295.09;5032228;28;20056;-78
2021/12/05 11:42:27;;;;;;;15.60;8.70;;;;;;;11.79;67.54;99287.59;5027878;28;20044;-76
2021/12/05 11:45:11;;;;;;;15.63;9.20;;;;;;;11.77;66.07;99285.25;5025108;28;20044;-76
2021/12/05 11:47:56;;;;;;;24.08;14.50;;;;;;;11.78;66.08;99280.59;5035406;28;20124;-76
2021/12/05 11:50:41;;;;;;;27.25;14.48;;;;;;;11.87;66.41;99284.69;5026700;28;20052;-78
2021/12/05 11:53:46;;;;;;;22.65;13.95;;;;;;;11.83;65.09;99277.59;5028144;28;20048;-77
2021/12/05 11:56:31;;;;;;;16.73;9.82;;;;;;;11.75;66.14;99276.66;5045979;28;20414;-77
2021/12/05 11:59:28;;;;;;;21.80;14.13;;;;;;;11.85;65.61;99261.66;5026291;28;20044;-75
2021/12/05 12:02:23;;;;;;;21.17;12.30;;;;;;;11.90;66.78;99262.16;5022276;28;20052;-76
2021/12/05 12:05:19;;;;;;;23.50;14.45;;;;;;;11.88;66.03;99255.50;5057519;23;20060;-76
2021/12/05 12:08:07;;;;;;;14.77;9.43;;;;;;;12.11;68.71;99250.88;5022548;28;20052;-76
2021/12/05 12:10:59;;;;;;;22.55;12.45;;;;;;;12.10;67.52;99252.03;5031046;28;20056;-76
2021/12/05 12:13:46;;;;;;;24.65;14.43;;;;;;;11.99;66.49;99248.31;5017674;28;20044;-77
2021/12/05 12:16:33;;;;;;;23.52;14.05;;;;;;;12.04;66.07;99249.97;5021425;28;20442;-75
2021/12/05 12:19:22;;;;;;;22.90;13.75;;;;;;;12.06;66.35;99236.78;5021714;28;20057;-76
2021/12/05 12:22:08;;;;;;;21.67;13.68;;;;;;;12.11;66.01;99239.19;5022835;28;20053;-76
2021/12/05 12:25:00;;;;;;;24.40;13.57;;;;;;;12.17;66.31;99238.56;5028633;28;20052;-75
2021/12/05 12:27:47;;;;;;;21.70;13.05;;;;;;;12.11;66.11;99237.25;5024363;28;20084;-75
2021/12/05 12:30:35;;;;;;;23.73;12.98;;;;;;;12.20;66.98;99217.94;5003404;28;20056;-76
2021/12/05 12:33:26;;;;;;;26.02;13.40;;;;;;;12.27;67.16;99221.59;5014313;28;20052;-76
2021/12/05 12:36:10;;;;;;;21.90;13.48;;;;;;;12.35;67.49;99227.94;5004324;28;20439;-76
2021/12/05 12:38:55;;;;;;;18.67;10.43;;;;;;;12.38;67.13;99217.13;5005062;28;20061;-76
2021/12/05 12:41:40;;;;;;;28.42;14.35;;;;;;;12.38;66.13;99225.31;5007878;28;20052;-76
2021/12/05 12:44:26;;;;;;;27.13;15.05;;;;;;;12.43;66.99;99219.56;5026082;28;20044;-77
2021/12/05 12:47:11;;;;;;;24.92;12.80;;;;;;;12.36;65.92;99213.97;5036384;28;20513;-76
2021/12/05 12:50:24;;;;;;;25.00;14.07;;;;;;;12.37;66.59;99217.47;5035117;28;20048;-76
2021/12/05 12:53:17;;;;;;;22.55;13.35;;;;;;;12.55;66.68;99210.38;5032227;28;20056;-76
2021/12/05 12:56:11;;;;;;;21.88;13.60;;;;;;;12.53;67.72;99201.78;4986876;28;20247;-76
2021/12/05 12:59:10;;;;;;;21.25;13.35;;;;;;;12.41;64.59;99205.47;5007561;28;20048;-77
2021/12/05 13:10:47;;;;;;;24.00;12.43;;;;;;;12.42;66.41;99200.81;5026910;28;20044;-77
2021/12/05 13:13:35;;;;;;;23.08;12.32;;;;;;;12.41;65.78;99205.47;5010264;28;20053;-77
2021/12/05 13:16:28;;;;;;;26.25;14.85;;;;;;;12.52;65.14;99204.88;5021077;28;20076;-76
2021/12/05 13:19:22;;;;;;;23.83;14.38;;;;;;;12.48;64.67;99204.81;5011614;28;20057;-76
2021/12/05 13:22:07;;;;;;;24.48;15.05;;;;;;;12.54;65.06;99208.81;5031456;28;20068;-76
2021/12/05 13:25:05;;;;;;;31.42;15.00;;;;;;;12.66;65.70;99211.34;5002663;28;20069;-78
2021/12/05 13:27:50;;;;;;;27.30;14.55;;;;;;;12.72;65.87;99212.59;5002632;28;20517;-78
2021/12/05 13:30:34;;;;;;;;;;;;;;;12.88;65.76;99214.41;5005114;28;20068;-76
2021/12/05 13:33:22;;;;;;;23.80;14.02;;;;;;;12.85;64.57;99210.44;5010153;28;19913;-77
2021/12/05 13:36:33;;;;;;;31.85;15.07;;;;;;;12.89;64.18;99213.25;5005816;28;20049;-78
2021/12/05 13:39:39;;;;;;;30.30;14.90;;;;;;;12.95;64.49;99206.34;5011991;28;20046;-77
2021/12/05 13:42:37;;;;;;;26.42;14.05;;;;;;;12.97;62.25;99214.91;5006358;28;20541;-77
2021/12/05 13:45:37;;;;;;;27.35;14.85;;;;;;;13.07;62.80;99209.63;4999351;28;20419;-77
2021/12/05 13:48:26;;;;;;;30.83;15.23;;;;;;;13.09;61.63;99206.53;4995186;28;20045;-76
2021/12/05 13:51:22;;;;;;;26.13;15.18;;;;;;;13.11;60.56;99215.94;4999818;28;20046;-76
2021/12/05 13:54:24;;;;;;;28.85;15.65;;;;;;;13.20;60.82;99227.41;5015396;28;20117;-76
2021/12/05 13:57:08;;;;;;;35.83;16.80;;;;;;;13.24;61.31;99232.91;5013243;28;20057;-82
2021/12/05 13:59:53;;;;;;;23.63;10.90;;;;;;;13.31;61.21;99235.72;5012140;28;20049;-80
2021/12/05 14:02:54;;;;;;;25.13;12.52;;;;;;;13.47;62.66;99241.00;5009026;28;20103;-77
2021/12/05 14:05:47;;;;;;;27.25;14.93;;;;;;;13.52;62.84;99241.47;5018574;28;20414;-77
2021/12/05 14:08:32;;;;;;;30.38;15.48;;;;;;;13.64;63.76;99243.97;5019119;28;20052;-77
2021/12/05 14:11:17;;;;;;;30.15;16.90;;;;;;;13.67;61.82;99254.13;5007207;28;20040;-78
2021/12/05 14:14:04;;;;;;;35.78;17.95;;;;;;;13.74;59.99;99258.13;5010409;28;20085;-76
2021/12/05 14:16:51;;;;;;;37.33;18.08;;;;;;;13.86;58.29;99260.63;5009900;28;20048;-76
2021/12/05 14:19:39;;;;;;;29.15;15.75;;;;;;;13.93;53.06;99260.69;5016767;28;20041;-76
2021/12/05 14:22:29;;;;;;;23.63;14.02;;;;;;;14.16;49.98;99266.81;5015450;28;20048;-76
2021/12/05 14:25:23;;;;;;;32.25;13.23;;;;;;;14.23;50.04;99272.34;5000209;28;20634;-76
2021/12/05 14:28:10;;;;;;;23.60;14.52;;;;;;;14.23;52.55;99275.06;5021878;28;20049;-77
2021/12/05 14:30:55;;;;;;;31.63;17.15;;;;;;;14.25;56.68;99283.72;5010967;28;20419;-77
2021/12/05 14:33:50;;;;;;;;;;;;;;;14.31;59.54;99284.16;5004490;28;20045;-75
2021/12/05 14:36:39;;;;;;;35.28;17.65;;;;;;;14.35;60.04;99288.50;5022094;28;19913;-75
2021/12/05 14:39:38;;;;;;;29.05;14.88;;;;;;;14.43;56.55;99294.84;5020521;28;20041;-76
2021/12/05 14:42:25;;;;;;;19.45;11.20;;;;;;;15.18;47.30;99291.63;5014691;28;20068;-76
2021/12/05 14:45:14;;;;;;;16.05;8.68;;;;;;;16.74;40.02;99297.78;5008043;28;20057;-75
2021/12/05 14:48:02;;;;;;;18.83;11.63;;;;;;;16.78;39.83;99298.56;5006457;28;20045;-73
2021/12/05 14:50:51;;;;;;;21.30;12.63;;;;;;;16.29;42.42;99307.47;5019562;28;20064;-77
2021/12/05 14:53:40;;;;;;;18.45;11.95;;;;;;;15.65;43.10;99311.88;5018156;28;20048;-75
2021/12/05 14:56:31;;;;;;;19.77;12.38;;;;;;;13.77;47.12;99307.34;5019934;28;20057;-75
2021/12/05 14:59:17;;;;;;;23.77;12.43;;;;;;;12.27;51.46;99324.38;5015782;28;20410;-75
2021/12/05 15:02:04;;;;;;;25.50;13.02;;;;;;;11.63;53.99;99317.56;5017737;28;20053;-75
2021/12/05 15:04:51;;;;;;;21.20;11.32;;;;;;;11.18;53.18;99323.56;5034170;28;20060;-75
2021/12/05 15:07:37;;;;;;;22.98;13.48;;;;;;;10.39;55.47;99330.09;5020226;28;20052;-73
2021/12/05 15:10:22;;;;;;;31.25;13.60;;;;;;;10.26;57.98;99337.50;5017683;28;20068;-76
2021/12/05 15:13:08;;;;;;;;;;;;;;;9.76;55.97;99338.81;5024258;28;20040;-74
2021/12/05 15:15:53;;;;;;;23.98;12.90;;;;;;;9.28;56.82;99347.03;5018501;28;19913;-76
2021/12/05 15:18:39;;;;;;;18.33;10.98;;;;;;;9.07;57.97;99360.69;5023710;28;20040;-77
2021/12/05 15:21:24;;;;;;;24.38;16.02;;;;;;;8.78;58.91;99363.59;5025691;28;20534;-77
2021/12/05 15:24:14;;;;;;;26.63;15.82;;;;;;;8.45;60.18;99375.25;5022258;28;20068;-77
2021/12/05 15:27:01;;;;;;;24.60;15.55;;;;;;;8.29;61.56;99379.66;5013613;28;20513;-77
2021/12/05 15:29:48;;;;;;;26.85;17.08;;;;;;;8.06;62.79;99373.03;5021724;28;20041;-76
2021/12/05 15:32:34;;;;;;;35.65;21.15;;;;;;;8.43;61.22;99382.13;4993777;28;20057;-76
2021/12/05 15:35:20;;;;;;;31.38;18.80;;;;;;;8.28;62.78;99391.59;5021341;28;20048;-77
2021/12/05 15:38:11;;;;;;;36.75;23.42;;;;;;;8.19;62.25;99393.59;5010755;28;20053;-76
2021/12/05 15:41:01;;;;;;;42.17;23.23;;;;;;;8.30;62.17;99397.53;5022942;28;20049;-74
2021/12/05 15:43:46;;;;;;;39.63;22.55;;;;;;;8.13;62.01;99401.13;5032828;28;20044;-74
2021/12/05 15:46:31;;;;;;;32.00;21.17;;;;;;;8.14;61.93;99407.34;5024423;28;20045;-77
2021/12/05 15:49:16;;;;;;;28.15;18.17;;;;;;;7.92;63.24;99413.09;5035524;28;20044;-75
2021/12/05 15:52:01;;;;;;;27.90;16.70;;;;;;;7.74;63.61;99432.16;5033348;28;20048;-76
2021/12/05 15:54:46;;;;;;;28.23;17.55;;;;;;;7.31;65.17;99434.28;5022382;28;20427;-75
2021/12/05 15:57:36;;;;;;;37.88;22.60;;;;;;;7.50;64.65;99440.09;5000893;28;20064;-76
2021/12/05 16:00:23;;;;;;;39.67;22.48;;;;;;;7.76;63.30;99439.16;5026925;28;20045;-76
2021/12/05 16:03:11;;;;;;;37.58;21.48;;;;;;;7.77;66.04;99446.16;5006110;28;20048;-76
2021/12/05 16:06:00;;;;;;;38.83;21.10;;;;;;;7.35;66.54;99446.03;5019174;28;20057;-77
2021/12/05 16:08:54;;;;;;;34.97;20.98;;;;;;;7.61;66.25;99449.41;5028690;28;20037;-74
2021/12/05 16:11:39;;;;;;;36.65;18.73;;;;;;;7.76;63.40;99445.34;5020513;28;20045;-77
2021/12/05 16:14:35;;;;;;;34.60;21.75;;;;;;;7.46;64.79;99454.59;5018443;28;20040;-76
2021/12/05 16:17:24;;;;;;;27.70;15.20;;;;;;;7.39;65.43;99444.25;5011266;28;20044;-77
2021/12/05 16:20:21;;;;;;;36.55;21.23;;;;;;;7.33;65.49;99442.84;5021012;28;20550;-74
2021/12/05 16:23:18;;;;;;;31.27;16.30;;;;;;;7.14;66.54;99453.25;5014585;28;20048;-76
2021/12/05 16:26:06;;;;;;;39.78;21.02;;;;;;;7.16;67.40;99456.44;5015795;28;20061;-76
2021/12/05 16:29:01;;;;;;;33.65;17.75;;;;;;;7.45;67.40;99463.81;5017383;28;20049;-75
2021/12/05 16:31:58;;;;;;;35.00;20.33;;;;;;;7.78;66.50;99470.16;5014912;28;20529;-75
2021/12/05 16:34:48;;;;;;;27.80;16.70;;;;;;;7.61;67.66;99460.25;5015146;28;20048;-75
2021/12/05 16:37:37;;;;;;;29.73;18.00;;;;;;;7.66;65.98;99454.66;5040591;28;20040;-76
2021/12/05 16:40:23;;;;;;;31.88;17.63;;;;;;;7.67;64.84;99460.81;5016497;28;20040;-76
2021/12/05 16:43:09;;;;;;;25.15;15.23;;;;;;;7.57;66.03;99459.28;5020526;28;20053;-76
2021/12/05 16:45:56;;;;;;;25.08;12.48;;;;;;;7.53;65.41;99466.47;5023309;28;20521;-80
2021/12/05 16:48:43;;;;;;;16.55;11.18;;;;;;;8.23;63.33;99456.81;5027217;28;20528;-75
2021/12/05 16:51:36;;;;;;;16.60;10.75;;;;;;;8.71;60.82;99447.34;5005728;28;20045;-76
2021/12/05 16:54:34;;;;;;;19.90;11.20;;;;;;;8.95;61.61;99463.69;5010646;28;20403;-78
2021/12/05 16:57:23;;;;;;;20.27;12.15;;;;;;;9.37;64.98;99470.56;5005575;28;20422;-79
2021/12/05 17:00:15;;;;;;;22.27;12.05;;;;;;;9.65;67.16;99475.34;5020651;28;20048;-79
2021/12/05 17:03:02;;;;;;;20.17;11.60;;;;;;;9.92;68.72;99479.28;5014546;28;20045;-78
2021/12/05 17:05:48;;;;;;;20.60;11.35;;;;;;;10.10;69.30;99476.00;5012399;28;20060;-78
2021/12/05 17:08:34;;;;;;;17.48;11.10;;;;;;;10.16;62.03;99476.53;5014135;28;20044;-78
2021/12/05 17:11:22;;;;;;;20.90;9.65;;;;;;;10.03;59.71;99470.31;5012006;28;20049;-77
2021/12/05 17:14:19;;;;;;;21.50;10.38;;;;;;;10.39;65.80;99493.16;5002238;28;20049;-78
2021/12/05 17:17:04;;;;;;;24.42;11.10;;;;;;;10.56;67.88;99498.31;4999939;28;20529;-79
2021/12/05 17:19:48;;;;;;;14.88;8.00;;;;;;;10.66;69.02;99495.13;5023530;28;20057;-76
2021/12/05 17:22:33;;;;;;;11.40;7.20;;;;;;;10.65;61.59;99496.25;5024854;28;20052;-76
2021/12/05 17:25:40;;;;;;;11.93;7.68;;;;;;;10.60;59.72;99494.56;5013007;28;20052;-76
2021/12/05 17:28:43;;;;;;;15.65;8.63;;;;;;;10.86;63.47;99496.84;5010001;28;20049;-77
2021/12/05 17:31:38;;;;;;;11.48;7.63;;;;;;;10.69;58.86;99486.25;5000819;28;20048;-78
2021/12/05 17:34:25;;;;;;;;;;;;;;;10.80;56.69;99503.66;5036799;28;20415;-77
2021/12/05 17:37:13;;;;;;;10.70;7.10;;;;;;;10.71;56.99;99505.75;5003861;28;20386;-78
2021/12/05 17:40:03;;;;;;;10.95;7.35;;;;;;;10.65;57.24;99509.84;5012489;28;20049;-76
2021/12/05 17:42:48;;;;;;;12.55;6.93;;;;;;;10.75;56.68;99517.50;5009619;28;20045;-76
2021/12/05 17:45:37;;;;;;;10.35;5.03;;;;;;;10.89;60.44;99530.72;5009908;28;20053;-78
2021/12/05 17:48:22;;;;;;;10.10;6.85;;;;;;;10.80;56.86;99519.97;5024709;28;20052;-77
2021/12/05 17:51:08;;;;;;;8.30;5.28;;;;;;;10.58;55.12;99521.28;5008926;28;20434;-79
2021/12/05 17:53:55;;;;;;;12.40;6.90;;;;;;;10.60;56.16;99526.41;5012132;28;20056;-78
2021/12/05 17:56:50;;;;;;;10.98;6.53;;;;;;;10.61;55.87;99527.97;5010090;28;20049;-78
2021/12/05 18:00:23;;;;;;;9.37;6.23;;;;;;;10.65;54.59;99532.38;5032834;28;20414;-79
2021/12/05 18:05:30;;;;;;;11.18;6.55;;;;;;;10.60;54.89;99535.34;5018394;28;20048;-77
2021/12/05 18:08:21;;;;;;;10.07;6.30;;;;;;;10.54;53.85;99546.78;5022560;28;20044;-77
2021/12/05 18:11:11;;;;;;;9.18;6.72;;;;;;;10.51;53.80;99539.34;5016733;28;20064;-78
2021/12/05 18:13:58;;;;;;;8.52;6.18;;;;;;;10.51;54.39;99540.13;5024399;28;20049;-78
2021/12/05 18:16:43;;;;;;;9.65;6.22;;;;;;;10.64;55.27;99549.03;5025128;28;20053;-78
2021/12/05 18:19:28;;;;;;;9.75;5.00;;;;;;;10.65;55.85;99550.63;5028780;28;20529;-77
2021/12/05 18:22:13;;;;;;;;;;;;;;;10.68;55.63;99558.88;5005676;28;20057;-77
2021/12/05 18:24:58;;;;;;;10.88;6.63;;;;;;;10.59;55.63;99555.50;5015200;28;19913;-78
2021/12/05 18:27:43;;;;;;;9.30;6.55;;;;;;;10.55;55.10;99551.91;5015736;28;20565;-78
2021/12/05 18:30:29;;;;;;;6.65;5.05;;;;;;;10.52;55.53;99552.56;5029689;28;20041;-77
2021/12/05 18:33:14;;;;;;;10.07;6.38;;;;;;;10.70;56.86;99559.34;5011378;28;20461;-78
2021/12/05 18:36:00;;;;;;;10.48;6.93;;;;;;;10.73;56.70;99549.69;5005333;28;20521;-80
2021/12/05 18:38:47;;;;;;;11.98;6.50;;;;;;;10.59;56.12;99544.63;5028243;28;20048;-79
2021/12/05 18:41:34;;;;;;;12.10;6.55;;;;;;;10.73;56.84;99555.91;5012509;28;20044;-80
2021/12/05 18:44:24;;;;;;;12.38;6.50;;;;;;;10.89;58.28;99552.47;5028075;28;20048;-80